createdAt,value
2022-11-20T00:01:09.752Z,95569.88
2022-11-20T00:04:12.904Z,95572.38
2022-11-20T00:07:14.446Z,95570.69
2022-11-20T00:10:16.030Z,95569.19
2022-11-20T00:13:17.573Z,95572.69
2022-11-20T00:16:21.768Z,95567.53
2022-11-20T00:19:23.448Z,95573.78
2022-11-20T00:22:25.084Z,95579.41
2022-11-20T00:25:26.606Z,95585.69
2022-11-20T00:28:28.142Z,95585.81
2022-11-20T00:31:31.001Z,95585.97
2022-11-20T00:34:32.624Z,95585.56
2022-11-20T00:37:34.164Z,95589.59
2022-11-20T00:40:35.718Z,95586.28
2022-11-20T00:43:38.290Z,95589.72
2022-11-20T00:46:39.854Z,95589.91
2022-11-20T00:49:41.381Z,95594.63
2022-11-20T00:52:42.899Z,95595.47
2022-11-20T00:55:44.445Z,95591.16
2022-11-20T00:58:47.654Z,95598.25
2022-11-20T01:01:49.228Z,95601.22
2022-11-20T01:04:50.769Z,95602.19
2022-11-20T01:07:52.279Z,95611.25
2022-11-20T01:10:53.847Z,95604.28
2022-11-20T01:13:56.366Z,95598.31
2022-11-20T01:16:58.011Z,95605.28
2022-11-20T01:20:02.231Z,95606.25
2022-11-20T01:23:04.797Z,95608.06
2022-11-20T01:26:13.512Z,95607.22
2022-11-20T01:29:17.734Z,95608.47
2022-11-20T01:32:19.420Z,95606.00
2022-11-20T01:35:21.119Z,95604.84
2022-11-20T01:38:23.603Z,95601.81
2022-11-20T01:41:45.297Z,95611.31
2022-11-20T01:44:59.921Z,95606.13
2022-11-20T01:48:01.500Z,95612.41
2022-11-20T01:51:04.957Z,95625.66
2022-11-20T01:54:11.935Z,95615.19
2022-11-20T01:57:14.703Z,95627.75
2022-11-20T02:00:19.424Z,95629.00
2022-11-20T02:03:21.807Z,95623.84
2022-11-20T02:06:26.966Z,95611.06
2022-11-20T02:09:29.033Z,95623.31
2022-11-20T02:12:49.098Z,95623.16
2022-11-20T02:15:51.137Z,95628.63
2022-11-20T02:18:55.738Z,95624.44
2022-11-20T02:22:04.849Z,95625.41
2022-11-20T02:25:07.979Z,95622.75
2022-11-20T02:28:09.613Z,95628.06
2022-11-20T02:31:11.142Z,95618.88
2022-11-20T02:34:12.727Z,95620.69
2022-11-20T02:37:15.121Z,95609.38
2022-11-20T02:40:16.861Z,95618.03
2022-11-20T02:43:18.397Z,95613.72
2022-11-20T02:46:19.928Z,95619.13
2022-11-20T02:49:21.898Z,95607.59
2022-11-20T02:52:23.576Z,95609.25
2022-11-20T02:55:25.116Z,95619.72
2022-11-20T02:58:26.647Z,95607.44
2022-11-20T03:01:28.235Z,95611.91
2022-11-20T03:04:29.813Z,95616.22
2022-11-20T03:07:31.475Z,95621.66
2022-11-20T03:10:33.025Z,95618.88
2022-11-20T03:13:35.490Z,95606.91
2022-11-20T03:16:37.065Z,95620.69
2022-11-20T03:19:38.634Z,95623.31
2022-11-20T03:22:40.166Z,95622.34
2022-11-20T03:25:41.705Z,95618.88
2022-11-20T03:28:47.822Z,95618.72
2022-11-20T03:31:49.353Z,95617.91
2022-11-20T03:34:50.877Z,95616.09
2022-11-20T03:37:52.403Z,95624.88
2022-11-20T03:40:59.345Z,95622.91
2022-11-20T03:44:03.459Z,95621.13
2022-11-20T03:47:04.969Z,95617.63
2022-11-20T03:50:06.957Z,95616.66
2022-11-20T03:53:08.519Z,95607.16
2022-11-20T03:56:12.017Z,95614.97
2022-11-20T03:59:13.658Z,95604.66
2022-11-20T04:02:15.196Z,95608.00
2022-11-20T04:05:16.827Z,95612.34
2022-11-20T04:08:18.396Z,95612.16
2022-11-20T04:11:23.382Z,95614.69
2022-11-20T04:14:24.935Z,95609.69
2022-11-20T04:17:26.431Z,95618.47
2022-11-20T04:20:27.929Z,95614.81
2022-11-20T04:23:29.964Z,95613.84
2022-11-20T04:26:31.684Z,95609.50
2022-11-20T04:29:33.210Z,95616.66
2022-11-20T04:32:34.729Z,95611.19
2022-11-20T04:35:37.059Z,95611.19
2022-11-20T04:38:39.254Z,95607.56
2022-11-20T04:41:40.801Z,95612.72
2022-11-20T04:44:42.335Z,95604.66
2022-11-20T04:47:43.869Z,95603.94
2022-11-20T04:50:45.414Z,95605.50
2022-11-20T04:53:46.954Z,95607.31
2022-11-20T04:56:50.756Z,95602.00
2022-11-20T04:59:52.437Z,95599.22
2022-11-20T05:02:54.307Z,95605.34
2022-11-20T05:05:55.932Z,95596.00
2022-11-20T05:08:57.463Z,95607.31
2022-11-20T05:11:59.037Z,95597.94
2022-11-20T05:15:00.557Z,95606.72
2022-11-20T05:18:02.201Z,95606.88
2022-11-20T05:21:04.278Z,95599.09
2022-11-20T05:24:06.806Z,95608.00
2022-11-20T05:27:08.325Z,95599.38
2022-11-20T05:30:11.033Z,95605.63
2022-11-20T05:33:12.586Z,95598.66
2022-11-20T05:36:15.524Z,95602.31
2022-11-20T05:39:17.042Z,95600.47
2022-11-20T05:42:33.744Z,95604.13
2022-11-20T05:45:35.339Z,95601.47
2022-11-20T05:48:37.943Z,95611.06
2022-11-20T05:51:39.456Z,95602.44
2022-11-20T05:54:41.209Z,95618.03
2022-11-20T05:57:42.719Z,95617.19
2022-11-20T06:00:44.246Z,95620.53
2022-11-20T06:03:48.416Z,95626.53
2022-11-20T06:06:50.074Z,95610.09
2022-11-20T06:09:51.603Z,95621.94
2022-11-20T06:12:53.123Z,95618.28
2022-11-20T06:15:55.112Z,95624.44
2022-11-20T06:18:56.670Z,95627.06
2022-11-20T06:21:58.213Z,95628.75
2022-11-20T06:24:59.760Z,95627.78
2022-11-20T06:28:01.384Z,95632.09
2022-11-20T06:31:03.899Z,95630.44
2022-11-20T06:34:07.167Z,95633.78
2022-11-20T06:37:08.714Z,95637.28
2022-11-20T06:40:11.044Z,95634.75
2022-11-20T06:43:12.664Z,95644.38
2022-11-20T06:46:15.716Z,95647.03
2022-11-20T06:49:17.395Z,95654.97
2022-11-20T06:52:18.917Z,95654.84
2022-11-20T06:55:20.992Z,95653.16
2022-11-20T06:58:22.602Z,95655.66
2022-11-20T07:01:24.127Z,95653.16
2022-11-20T07:04:25.708Z,95663.44
2022-11-20T07:07:27.241Z,95662.47
2022-11-20T07:10:29.093Z,95659.81
2022-11-20T07:13:30.881Z,95658.84
2022-11-20T07:16:32.399Z,95660.41
2022-11-20T07:19:33.970Z,95656.91
2022-11-20T07:22:35.587Z,95658.72
2022-11-20T07:25:37.169Z,95662.06
2022-11-20T07:28:39.216Z,95668.19
2022-11-20T07:31:40.750Z,95666.09
2022-11-20T07:34:42.334Z,95672.22
2022-11-20T07:37:43.915Z,95675.84
2022-11-20T07:40:45.520Z,95671.13
2022-11-20T07:43:47.049Z,95673.59
2022-11-20T07:46:48.541Z,95669.00
2022-11-20T07:49:50.044Z,95663.56
2022-11-20T07:52:51.649Z,95666.22
2022-11-20T07:55:53.468Z,95665.09
2022-11-20T07:58:55.168Z,95657.97
2022-11-20T08:01:56.727Z,95659.53
2022-11-20T08:04:58.264Z,95663.56
2022-11-20T08:08:00.068Z,95671.22
2022-11-20T08:11:20.022Z,95668.44
2022-11-20T08:14:21.609Z,95666.47
2022-11-20T08:17:23.112Z,95665.06
2022-11-20T08:20:24.714Z,95667.59
2022-11-20T08:23:26.266Z,95662.94
2022-11-20T08:26:28.024Z,95670.63
2022-11-20T08:29:29.647Z,95674.66
2022-11-20T08:32:31.258Z,95670.88
2022-11-20T08:35:37.013Z,95668.94
2022-11-20T08:38:38.645Z,95678.13
2022-11-20T08:41:40.198Z,95677.69
2022-11-20T08:44:41.784Z,95676.69
2022-11-20T08:47:44.173Z,95668.47
2022-11-20T08:50:45.712Z,95672.63
2022-11-20T08:53:49.458Z,95661.75
2022-11-20T08:56:51.060Z,95663.81
2022-11-20T09:00:05.918Z,95665.34
2022-11-20T09:03:08.153Z,95657.91
2022-11-20T09:06:09.680Z,95655.00
2022-11-20T09:09:11.283Z,95654.84
2022-11-20T09:12:12.779Z,95656.53
2022-11-20T09:15:14.289Z,95672.13
2022-11-20T09:18:15.785Z,95666.56
2022-11-20T09:21:17.756Z,95661.78
2022-11-20T09:24:19.965Z,95654.81
2022-11-20T09:27:22.484Z,95664.69
2022-11-20T09:30:24.247Z,95664.41
2022-11-20T09:33:25.953Z,95666.09
2022-11-20T09:36:27.724Z,95670.09
2022-11-20T09:39:29.322Z,95655.16
2022-11-20T09:42:41.721Z,95658.22
2022-11-20T09:45:55.358Z,95673.97
2022-11-20T09:49:15.023Z,95668.53
2022-11-20T09:52:16.509Z,95663.06
2022-11-20T09:55:18.409Z,95651.34
2022-11-20T09:58:43.800Z,95658.56
2022-11-20T10:01:46.476Z,95650.13
2022-11-20T10:05:05.949Z,95661.69
2022-11-20T10:08:30.369Z,95645.56
2022-11-20T10:11:52.720Z,95631.19
2022-11-20T10:14:56.994Z,95640.66
2022-11-20T10:18:16.880Z,95634.53
2022-11-20T10:21:29.694Z,95634.38
2022-11-20T10:25:04.710Z,95637.56
2022-11-20T10:28:15.444Z,95642.56
2022-11-20T10:31:38.539Z,95648.03
2022-11-20T10:34:47.779Z,95647.19
2022-11-20T10:37:56.168Z,95652.22
2022-11-20T10:41:21.178Z,95649.69
2022-11-20T10:44:53.684Z,95646.91
2022-11-20T10:48:22.181Z,95641.28
2022-11-20T10:51:58.482Z,95648.63
2022-11-20T10:55:05.319Z,95650.16
2022-11-20T10:58:38.055Z,95640.38
2022-11-20T11:01:43.686Z,95644.56
2022-11-20T11:04:55.753Z,95642.41
2022-11-20T11:07:58.880Z,95631.63
2022-11-20T11:11:04.278Z,95633.75
2022-11-20T11:14:10.841Z,95634.06
2022-11-20T11:17:23.650Z,95638.53
2022-11-20T11:20:27.020Z,95630.34
2022-11-20T11:23:42.086Z,95639.53
2022-11-20T11:26:53.706Z,95620.88
2022-11-20T11:30:14.990Z,95624.34
2022-11-20T11:33:23.320Z,95615.69
2022-11-20T11:36:27.244Z,95615.19
2022-11-20T11:39:31.325Z,95621.84
2022-11-20T11:42:33.206Z,95613.72
2022-11-20T11:45:34.955Z,95605.47
2022-11-20T11:48:36.756Z,95608.13
2022-11-20T11:51:59.555Z,95603.88
2022-11-20T11:55:10.071Z,95600.53
2022-11-20T11:58:16.696Z,95610.81
2022-11-20T12:01:40.560Z,95600.22
2022-11-20T12:04:56.341Z,95597.41
2022-11-20T12:08:19.564Z,95600.22
2022-11-20T12:11:43.056Z,95599.91
2022-11-20T12:14:51.061Z,95597.41
2022-11-20T12:17:56.050Z,95601.59
2022-11-20T12:21:21.892Z,95596.56
2022-11-20T12:25:01.834Z,95597.88
2022-11-20T12:28:51.211Z,95589.53
2022-11-20T12:32:01.448Z,95595.97
2022-11-20T12:35:37.117Z,95599.63
2022-11-20T12:38:57.357Z,95597.56
2022-11-20T12:42:34.121Z,95593.94
2022-11-20T12:46:01.506Z,95591.28
2022-11-20T12:49:44.106Z,95582.97
2022-11-20T12:52:56.867Z,95591.56
2022-11-20T12:55:58.843Z,95590.75
2022-11-20T12:59:15.527Z,95591.72
2022-11-20T13:02:20.448Z,95593.25
2022-11-20T13:05:32.352Z,95586.41
2022-11-20T13:08:44.463Z,95588.09
2022-11-20T13:11:57.398Z,95586.41
2022-11-20T13:15:53.491Z,95596.22
2022-11-20T13:18:55.268Z,95586.59
2022-11-20T13:21:56.805Z,95584.09
2022-11-20T13:24:58.376Z,95582.25
2022-11-20T13:28:21.530Z,95578.91
2022-11-20T13:31:32.312Z,95574.59
2022-11-20T13:34:36.986Z,95573.09
2022-11-20T13:37:42.075Z,95574.38
2022-11-20T13:40:58.168Z,95577.16
2022-11-20T13:44:09.053Z,95564.38
2022-11-20T13:47:24.871Z,95575.97
2022-11-20T13:50:55.154Z,95567.84
2022-11-20T13:54:22.277Z,95569.66
2022-11-20T13:57:45.767Z,95572.19
2022-11-20T14:00:56.132Z,95564.50
2022-11-20T14:04:06.113Z,95569.53
2022-11-20T14:07:10.017Z,95564.88
2022-11-20T14:10:28.332Z,95570.88
2022-11-20T14:13:32.794Z,95567.72
2022-11-20T14:16:36.875Z,95580.97
2022-11-20T14:19:42.166Z,95565.06
2022-11-20T14:22:54.206Z,95562.84
2022-11-20T14:25:56.542Z,95568.38
2022-11-20T14:28:58.466Z,95577.84
2022-11-20T14:32:00.304Z,95570.59
2022-11-20T14:35:09.819Z,95569.59
2022-11-20T14:38:15.640Z,95567.38
2022-11-20T14:41:24.928Z,95565.72
2022-11-20T14:44:33.516Z,95558.75
2022-11-20T14:47:36.154Z,95558.75
2022-11-20T14:50:39.440Z,95565.88
2022-11-20T14:53:40.905Z,95554.59
2022-11-20T14:56:54.113Z,95564.22
2022-11-20T15:00:14.057Z,95560.03
2022-11-20T15:03:17.199Z,95561.72
2022-11-20T15:06:27.487Z,95558.91
2022-11-20T15:09:29.178Z,95552.91
2022-11-20T15:12:32.656Z,95555.72
2022-11-20T15:15:43.356Z,95564.66
2022-11-20T15:18:45.380Z,95558.00
2022-11-20T15:21:47.053Z,95565.41
2022-11-20T15:24:53.123Z,95551.25
2022-11-20T15:27:58.252Z,95553.72
2022-11-20T15:31:00.882Z,95551.03
2022-11-20T15:34:02.451Z,95552.28
2022-11-20T15:37:04.030Z,95546.47
2022-11-20T15:40:06.931Z,95549.41
2022-11-20T15:43:13.400Z,95546.06
2022-11-20T15:46:18.146Z,95551.69
2022-11-20T15:49:19.896Z,95553.75
2022-11-20T15:52:21.658Z,95544.97
2022-11-20T15:55:23.180Z,95547.47
2022-11-20T15:58:27.629Z,95548.44
2022-11-20T16:01:29.224Z,95537.19
2022-11-20T16:04:30.751Z,95538.16
2022-11-20T16:07:32.365Z,95536.63
2022-11-20T16:10:36.595Z,95540.25
2022-11-20T16:13:59.732Z,95524.50
2022-11-20T16:17:02.536Z,95524.50
2022-11-20T16:20:04.377Z,95520.47
2022-11-20T16:23:06.953Z,95518.66
2022-11-20T16:26:19.842Z,95513.22
2022-11-20T16:29:21.748Z,95516.84
2022-11-20T16:32:23.264Z,95514.34
2022-11-20T16:35:28.168Z,95518.94
2022-11-20T16:38:29.864Z,95517.28
2022-11-20T16:41:38.336Z,95517.28
2022-11-20T16:44:39.885Z,95512.66
2022-11-20T16:47:41.413Z,95501.38
2022-11-20T16:50:55.955Z,95508.66
2022-11-20T16:53:57.701Z,95496.97
2022-11-20T16:56:59.224Z,95492.81
2022-11-20T17:00:02.451Z,95490.00
2022-11-20T17:03:05.295Z,95489.19
2022-11-20T17:06:18.543Z,95487.66
2022-11-20T17:09:20.162Z,95492.44
2022-11-20T17:12:21.912Z,95483.63
2022-11-20T17:15:23.477Z,95485.44
2022-11-20T17:18:27.562Z,95475.13
2022-11-20T17:21:29.893Z,95473.63
2022-11-20T17:24:32.206Z,95488.97
2022-11-20T17:27:33.848Z,95479.50
2022-11-20T17:30:35.824Z,95483.16
2022-11-20T17:33:39.592Z,95481.50
2022-11-20T17:36:45.483Z,95482.47
2022-11-20T17:39:49.197Z,95476.47
2022-11-20T17:42:50.774Z,95476.78
2022-11-20T17:45:52.303Z,95484.03
2022-11-20T17:48:55.065Z,95478.88
2022-11-20T17:51:56.613Z,95454.41
2022-11-20T17:54:58.236Z,95469.16
2022-11-20T17:58:02.838Z,95463.19
2022-11-20T18:01:08.550Z,95474.09
2022-11-20T18:04:10.766Z,95459.63
2022-11-20T18:07:12.556Z,95462.53
2022-11-20T18:10:14.206Z,95448.22
2022-11-20T18:13:15.699Z,95457.84
2022-11-20T18:16:17.417Z,95454.66
2022-11-20T18:19:23.147Z,95447.56
2022-11-20T18:22:24.771Z,95448.66
2022-11-20T18:25:26.398Z,95449.53
2022-11-20T18:28:27.965Z,95453.59
2022-11-20T18:31:29.561Z,95437.97
2022-11-20T18:34:31.296Z,95432.81
2022-11-20T18:37:32.925Z,95427.66
2022-11-20T18:40:36.345Z,95422.81
2022-11-20T18:43:56.642Z,95425.31
2022-11-20T18:46:58.276Z,95417.78
2022-11-20T18:50:01.528Z,95422.94
2022-11-20T18:53:03.052Z,95411.38
2022-11-20T18:56:05.516Z,95411.38
2022-11-20T18:59:09.951Z,95402.59
2022-11-20T19:02:14.330Z,95397.31
2022-11-20T19:05:16.006Z,95396.47
2022-11-20T19:08:19.926Z,95401.09
2022-11-20T19:11:21.520Z,95401.91
2022-11-20T19:14:23.279Z,95397.22
2022-11-20T19:17:26.304Z,95405.72
2022-11-20T19:20:27.826Z,95411.13
2022-11-20T19:23:29.701Z,95412.94
2022-11-20T19:26:31.351Z,95405.97
2022-11-20T19:29:33.293Z,95399.72
2022-11-20T19:32:35.396Z,95394.63
2022-11-20T19:35:37.020Z,95405.59
2022-11-20T19:38:48.648Z,95399.47
2022-11-20T19:41:50.364Z,95396.97
2022-11-20T19:44:52.946Z,95383.72
2022-11-20T19:48:09.859Z,95391.13
2022-11-20T19:51:14.163Z,95386.69
2022-11-20T19:54:16.701Z,95385.16
2022-11-20T19:57:18.280Z,95380.84
2022-11-20T20:00:25.602Z,95385.28
2022-11-20T20:03:33.218Z,95371.41
2022-11-20T20:06:39.090Z,95373.63
2022-11-20T20:09:41.649Z,95355.41
2022-11-20T20:12:43.180Z,95358.72
2022-11-20T20:15:45.783Z,95344.25
2022-11-20T20:18:55.277Z,95337.31
2022-11-20T20:21:57.189Z,95345.09
2022-11-20T20:24:59.301Z,95345.78
2022-11-20T20:28:04.074Z,95348.31
2022-11-20T20:31:11.199Z,95337.03
2022-11-20T20:34:16.017Z,95347.31
2022-11-20T20:37:17.958Z,95340.38
2022-11-20T20:40:20.535Z,95341.34
2022-11-20T20:43:22.208Z,95333.41
2022-11-20T20:46:24.466Z,95334.75
2022-11-20T20:49:26.236Z,95340.88
2022-11-20T20:52:28.475Z,95339.22
2022-11-20T20:55:30.360Z,95365.41
2022-11-20T20:58:32.233Z,95376.13
2022-11-20T21:01:34.462Z,95378.50
2022-11-20T21:04:36.112Z,95392.97
2022-11-20T21:07:57.702Z,95386.31
2022-11-20T21:11:05.506Z,95378.78
2022-11-20T21:14:07.139Z,95383.09
2022-11-20T21:17:14.834Z,95382.13
2022-11-20T21:20:35.596Z,95372.94
2022-11-20T21:23:37.494Z,95375.69
2022-11-20T21:26:39.002Z,95372.06
2022-11-20T21:29:40.835Z,95373.19
2022-11-20T21:32:45.331Z,95363.44
2022-11-20T21:35:46.921Z,95372.91
2022-11-20T21:38:50.503Z,95371.66
2022-11-20T21:41:52.036Z,95374.19
2022-11-20T21:44:53.628Z,95361.22
2022-11-20T21:47:55.165Z,95372.66
2022-11-20T21:50:57.330Z,95369.31
2022-11-20T21:53:59.302Z,95354.41
2022-11-20T21:57:00.885Z,95359.44
2022-11-20T22:00:04.597Z,95369.19
2022-11-20T22:03:11.755Z,95370.34
2022-11-20T22:06:13.324Z,95371.59
2022-11-20T22:09:14.881Z,95361.16
2022-11-20T22:12:16.425Z,95354.50
2022-11-20T22:15:38.959Z,95355.31
2022-11-20T22:18:50.540Z,95355.47
2022-11-20T22:21:52.169Z,95353.13
2022-11-20T22:24:53.756Z,95357.00
2022-11-20T22:27:55.360Z,95352.88
2022-11-20T22:31:00.965Z,95349.81
2022-11-20T22:34:03.197Z,95348.28
2022-11-20T22:37:04.708Z,95359.53
2022-11-20T22:40:06.887Z,95347.88
2022-11-20T22:43:08.397Z,95344.13
2022-11-20T22:46:12.286Z,95353.34
2022-11-20T22:49:13.820Z,95357.94
2022-11-20T22:52:15.350Z,95368.50
2022-11-20T22:55:16.902Z,95356.81
2022-11-20T22:58:18.420Z,95358.06
2022-11-20T23:01:24.503Z,95359.59
2022-11-20T23:04:26.146Z,95373.00
2022-11-20T23:07:27.880Z,95364.22
2022-11-20T23:10:29.479Z,95359.50
2022-11-20T23:13:31.249Z,95365.75
2022-11-20T23:16:34.146Z,95348.63
2022-11-20T23:19:35.853Z,95349.47
2022-11-20T23:22:37.543Z,95360.03
2022-11-20T23:25:39.120Z,95363.53
2022-11-20T23:28:41.507Z,95364.22
2022-11-20T23:31:43.374Z,95358.38
2022-11-20T23:34:44.950Z,95372.44
2022-11-20T23:37:46.471Z,95367.00
2022-11-20T23:40:48.965Z,95369.22
2022-11-20T23:43:50.568Z,95369.91
2022-11-20T23:46:52.247Z,95372.41
2022-11-20T23:49:54.171Z,95365.06
2022-11-20T23:52:56.002Z,95363.66
2022-11-20T23:56:00.597Z,95373.09
2022-11-20T23:59:06.849Z,95354.75
